Pemaquid Point Lighthouse, ME

43° 50' 13"N, 69° 30' 22"W, Elevation 40 ft.
Eastern Time

Hourly observations for the last 72 hours

Date Time Temperature (°F) Humi-
dity

(%)
Wind
(mph)
Pressure Rain (in) Sun
(W/m2)
UV ET
(in)
Air Dew 6 Hour 1 Hr 3 Hr 6 Hr Day
Alt
(in)
Sea
Level

(mb)
Max Min
15 13:00 72.1 70.3 94 SSW 9 G 11 29.82 1009.8 0.00 874 6.6 0.034
15 12:00 71.5 70.9 98 SW 5 G 8 29.83 1010.2 0.00 875 6.5 0.019
15 11:00 69.4 69.1 99 SSW 5 G 6 29.82 1010.0 0.00 485 3.6 0.011
15 10:00 68.6 68.3 99 SSW 4 G 6 29.82 1010.0 0.00 236 2.5 0.005
15 09:00 65.9 65.3 98 WSW 2 G 3 29.83 1010.0 0.00 171 1.0 0.002
15 08:00 66.8 66.2 67.5 63.9 98 W 1 G 3 29.82 1009.7 0.00 125 0.6 0.000
15 07:00 66.7 66.1 98 W 4 G 6 29.81 1009.7 0.00 26 0.0 0.000
15 06:00 65.4 64.8 98 W 5 G 7 29.80 1009.2 0.00 9 0.0 0.000
15 05:00 64.3 63.7 98 SSW 5 G 9 29.79 1008.8 0.00 0 0.0 0.000
15 04:00 64.5 63.9 98 S 9 G 11 29.80 1009.0 0.00 0 0.0 0.000
15 03:00 66.8 66.2 98 E 2 G 3 29.81 1009.4 0.00 0 0.0 0.000
15 02:00 67.2 66.6 68.3 66.2 98 SSE 1 G 2 29.82 1009.8 0.00 0 0.0 0.000
15 01:00 67.3 66.7 98 S 1 G 3 29.83 1010.2 0.00 0 0.0 0.000
15 00:00 67.7 67.1 98 SSE 1 G 4 29.84 1010.4 0.07 0 0.0 0.055
14 23:00 68.1 67.5 98 SSE 3 G 4 29.84 1010.5 0.07 0 0.0 0.055
14 22:00 68.1 67.5 98 SE 2 G 4 29.85 1010.9 0.07 0 0.0 0.055
14 21:00 67.3 66.7 98 NE 4 G 8 29.85 1010.9 0.07 0 0.0 0.055
14 20:00 66.4 65.8 66.4 63.5 98 E 4 G 8 29.85 1010.9 0.07 0 0.0 0.055
14 19:00 64.2 63.6 98 ENE 6 G 8 29.85 1010.8 0.07 30 0.0 0.053
14 18:00 64.8 64.2 98 NE 5 G 9 29.86 1011.1 0.07 135 0.5 0.049
14 17:00 64.9 64.3 98 NE 5 G 9 29.86 1011.3 0.07 250 1.3 0.042
14 16:00 64.6 64.0 98 NNE 5 G 9 29.88 1011.8 0.07 320 2.0 0.035
14 15:00 64.4 63.8 98 NE 6 G 10 29.89 1012.2 0.07 290 2.2 0.027
14 14:00 63.5 62.9 64.5 62.9 98 NNE 10 G 13 29.91 1012.7 0.01 0.07 0.07 311 3.1 0.020
14 13:00 64.0 63.4 98 NNE 10 G 13 29.91 1013.0 0.07 345 3.1 0.013
14 12:00 63.2 62.6 98 NE 12 G 15 29.92 1013.2 0.01 0.07 411 3.7 0.008
14 11:00 63.2 62.6 98 NNE 11 G 13 29.93 1013.6 0.06 0.06 156 1.6 0.004
14 10:00 63.4 62.8 98 NE 10 G 14 29.93 1013.7 0.03 0.06 42 0.0 0.002
14 09:00 63.9 63.3 98 NE 11 G 12 29.94 1013.8 0.03 0.03 53 0.0 0.001
14 08:00 64.5 63.9 65.4 64.5 98 NE 10 G 12 29.94 1014.0 0.00 35 0.0 0.000
14 07:00 64.9 64.3 98 NNE 9 G 12 29.94 1013.9 0.00 14 0.0 0.000
14 06:00 65.3 64.7 98 NNE 9 G 12 29.93 1013.4 0.00 0 0.0 0.000
14 05:00 65.3 64.7 98 NNE 10 G 14 29.93 1013.6 0.00 0 0.0 0.000
14 04:00 65.2 64.6 98 NNE 8 G 12 29.95 1014.1 0.00 0 0.0 0.000
14 03:00 65.3 64.7 98 NNE 8 G 11 29.96 1014.6 0.00 0 0.0 0.000
14 02:00 64.9 64.0 65.2 63.0 97 NNE 8 G 11 29.97 1014.8 0.00 0 0.0 0.000
14 01:00 64.6 63.7 97 NNE 8 G 11 29.98 1015.4 0.00 0 0.0 0.000
14 00:00 63.5 62.6 97 NNE 9 G 12 29.99 1015.7 0.00 0 0.0 0.061
13 23:00 63.3 62.4 97 NNE 10 G 13 30.00 1015.8 0.00 0 0.0 0.061
13 22:00 63.2 62.3 97 NNE 9 G 12 30.01 1016.2 0.00 0 0.0 0.061
13 21:00 64.3 63.1 96 NE 8 G 10 30.02 1016.5 0.00 0 0.0 0.061
13 20:00 64.9 63.7 66.3 64.5 96 NE 7 G 10 30.01 1016.3 0.00 0 0.0 0.061
13 19:00 64.6 63.4 96 NE 7 G 10 30.02 1016.6 0.00 7 0.0 0.060
13 18:00 65.4 63.9 95 NE 11 G 13 30.03 1016.9 0.00 47 0.0 0.058
13 17:00 65.6 63.8 94 NE 9 G 12 30.04 1017.3 0.00 91 0.7 0.054
13 16:00 66.1 63.7 92 NE 11 G 13 30.05 1017.5 0.00 218 1.6 0.048
13 15:00 65.8 64.0 94 NE 9 G 13 30.06 1017.9 0.00 267 2.3 0.042
13 14:00 66.2 64.1 66.8 64.3 93 NE 9 G 12 30.07 1018.4 0.00 258 2.6 0.036
13 13:00 66.3 63.9 92 ENE 12 G 15 30.09 1019.0 0.00 202 2.3 0.029
13 12:00 66.3 64.5 94 NE 6 G 10 30.10 1019.5 0.00 315 3.2 0.022
13 11:00 65.6 64.1 95 NE 8 G 12 30.11 1019.7 0.00 462 3.9 0.013
13 10:00 64.8 63.6 96 NE 10 G 13 30.11 1019.8 0.00 294 2.2 0.008
13 09:00 64.8 63.9 97 NE 5 G 8 30.12 1019.9 0.00 158 1.2 0.004
13 08:00 64.9 64.0 65.0 64.3 97 NE 6 G 8 30.12 1020.0 0.00 100 0.7 0.002
13 07:00 64.9 64.0 97 NNE 7 G 10 30.12 1019.9 0.00 47 0.0 0.001
13 06:00 64.7 63.5 96 NNE 7 G 13 30.11 1019.8 0.00 7 0.0 0.001
13 05:00 64.7 63.5 96 NNE 8 G 12 30.10 1019.4 0.00 0 0.0 0.001
13 04:00 64.6 63.4 96 NNE 6 G 10 30.11 1019.6 0.00 0 0.0 0.001
13 03:00 64.5 63.3 96 NNE 8 G 11 30.11 1019.7 0.00 0 0.0 0.001
13 02:00 64.4 62.9 66.8 64.2 95 N 6 G 12 30.13 1020.4 0.00 0 0.0 0.001
13 01:00 64.3 62.5 94 NNE 8 G 11 30.14 1020.8 0.00 0 0.0 0.000
13 00:00 64.7 62.3 92 NE 10 G 12 30.14 1020.8 0.19 0 0.0 0.081
12 23:00 65.2 61.9 89 NE 11 G 13 30.13 1020.5 0.19 0 0.0 0.080
12 22:00 66.7 63.7 90 NNE 7 G 12 30.14 1020.7 0.19 0 0.0 0.079
12 21:00 66.1 64.0 93 NNE 8 G 10 30.15 1021.0 0.19 0 0.0 0.078
12 20:00 66.3 64.2 67.2 62.9 93 NNE 6 G 12 30.13 1020.3 0.12 0.19 0 0.0 0.077
12 19:00 66.3 63.9 92 NNE 9 G 13 30.13 1020.2 0.19 74 0.0 0.072
12 18:00 66.5 63.5 90 NNE 11 G 15 30.13 1020.2 0.19 350 0.8 0.064
12 17:00 67.0 63.3 88 NE 14 G 17 30.13 1020.4 0.12 0.19 612 1.8 0.053
12 16:00 64.8 62.4 92 NNE 12 G 16 30.13 1020.5 0.09 0.19 501 2.4 0.048
12 15:00 63.5 61.1 92 NE 12 G 16 30.15 1021.2 0.03 0.10 144 1.4 0.043
12 14:00 67.2 63.2 68.0 63.5 87 E 13 G 16 30.15 1021.1 0.07 213 2.1 0.035

Data generated by WxSolution Version 1.9.1.5, Build 2018.05.20.